createdAt,value
2023-01-09T00:00:25.953Z,-6.54
2023-01-09T00:02:52.986Z,-6.54
2023-01-09T00:05:20.105Z,-6.51
2023-01-09T00:07:46.862Z,-6.52
2023-01-09T00:10:14.395Z,-6.57
2023-01-09T00:12:41.350Z,-6.58
2023-01-09T00:15:09.224Z,-6.58
2023-01-09T00:17:36.064Z,-6.57
2023-01-09T00:20:03.199Z,-6.52
2023-01-09T00:22:30.963Z,-6.44
2023-01-09T00:24:57.742Z,-6.40
2023-01-09T00:27:24.525Z,-6.39
2023-01-09T00:29:51.359Z,-6.40
2023-01-09T00:32:20.428Z,-6.35
2023-01-09T00:34:47.111Z,-6.27
2023-01-09T00:37:14.081Z,-6.19
2023-01-09T00:39:41.609Z,-6.16
2023-01-09T00:42:14.195Z,-6.14
2023-01-09T00:44:46.864Z,-6.11
2023-01-09T00:47:17.538Z,-6.16
2023-01-09T00:49:44.313Z,-6.24
2023-01-09T00:52:11.734Z,-6.28
2023-01-09T00:54:39.279Z,-6.34
2023-01-09T00:57:06.533Z,-6.36
2023-01-09T00:59:33.436Z,-6.32
2023-01-09T01:02:00.439Z,-6.30
2023-01-09T01:04:46.154Z,-6.30
2023-01-09T01:07:31.936Z,-6.29
2023-01-09T01:09:58.681Z,-6.27
2023-01-09T01:12:25.548Z,-6.29
2023-01-09T01:14:52.443Z,-6.30
2023-01-09T01:17:19.560Z,-6.26
2023-01-09T01:19:46.330Z,-6.22
2023-01-09T01:22:13.155Z,-6.19
2023-01-09T01:24:39.995Z,-6.18
2023-01-09T01:27:06.851Z,-6.22
2023-01-09T01:29:33.737Z,-6.21
2023-01-09T01:32:00.546Z,-6.17
2023-01-09T01:34:28.757Z,-6.10
2023-01-09T01:36:55.613Z,-6.03
2023-01-09T01:39:22.440Z,-5.96
2023-01-09T01:41:49.330Z,-5.91
2023-01-09T01:44:54.039Z,-5.87
2023-01-09T01:47:20.877Z,-5.80
2023-01-09T01:49:47.844Z,-5.72
2023-01-09T01:52:14.622Z,-5.62
2023-01-09T01:54:41.463Z,-5.55
2023-01-09T01:57:08.231Z,-5.50
2023-01-09T01:59:37.653Z,-5.45
2023-01-09T02:02:04.954Z,-5.42
2023-01-09T02:04:34.020Z,-5.45
2023-01-09T02:07:01.886Z,-5.47
2023-01-09T02:09:28.756Z,-5.44
2023-01-09T02:11:57.178Z,-5.37
2023-01-09T02:14:26.475Z,-5.38
2023-01-09T02:17:15.232Z,-5.41
2023-01-09T02:20:23.952Z,-5.43
2023-01-09T02:22:59.908Z,-5.40
2023-01-09T02:25:57.781Z,-5.37
2023-01-09T02:29:00.298Z,-5.45
2023-01-09T02:31:36.330Z,-5.49
2023-01-09T02:34:12.513Z,-5.46
2023-01-09T02:37:01.022Z,-5.39
2023-01-09T02:39:43.504Z,-5.34
2023-01-09T02:42:16.215Z,-5.33
2023-01-09T02:44:44.649Z,-5.34
2023-01-09T02:47:17.641Z,-5.35
2023-01-09T02:49:53.263Z,-5.37
2023-01-09T02:52:29.381Z,-5.45
2023-01-09T02:55:12.780Z,-5.54
2023-01-09T02:58:09.158Z,-5.58
2023-01-09T03:00:49.493Z,-5.57
2023-01-09T03:03:37.181Z,-5.59
2023-01-09T03:06:29.727Z,-5.60
2023-01-09T03:09:00.465Z,-5.53
2023-01-09T03:11:28.986Z,-5.51
2023-01-09T03:13:57.473Z,-5.52
2023-01-09T03:16:27.078Z,-5.51
2023-01-09T03:18:53.844Z,-5.45
2023-01-09T03:21:20.715Z,-5.38
2023-01-09T03:23:53.677Z,-5.37
2023-01-09T03:26:20.469Z,-5.38
2023-01-09T03:28:47.458Z,-5.39
2023-01-09T03:31:14.503Z,-5.43
2023-01-09T03:33:41.645Z,-5.44
2023-01-09T03:36:09.349Z,-5.45
2023-01-09T03:38:36.191Z,-5.51
2023-01-09T03:41:03.037Z,-5.59
2023-01-09T03:43:29.804Z,-5.67
2023-01-09T03:45:56.683Z,-5.72
2023-01-09T03:48:23.664Z,-5.74
2023-01-09T03:50:54.380Z,-5.77
2023-01-09T03:53:22.101Z,-5.74
2023-01-09T03:55:51.159Z,-5.66
2023-01-09T03:58:18.410Z,-5.55
2023-01-09T04:00:49.088Z,-5.49
2023-01-09T04:03:16.774Z,-5.47
2023-01-09T04:05:44.366Z,-5.46
2023-01-09T04:08:11.136Z,-5.53
2023-01-09T04:10:37.879Z,-5.60
2023-01-09T04:13:04.620Z,-5.61
2023-01-09T04:15:31.431Z,-5.58
2023-01-09T04:17:58.196Z,-5.53
2023-01-09T04:20:24.983Z,-5.54
2023-01-09T04:22:51.836Z,-5.57
2023-01-09T04:25:18.640Z,-5.54
2023-01-09T04:27:45.471Z,-5.48
2023-01-09T04:30:12.894Z,-5.40
2023-01-09T04:32:39.778Z,-5.39
2023-01-09T04:35:07.569Z,-5.42
2023-01-09T04:37:36.781Z,-5.42
2023-01-09T04:40:12.145Z,-5.40
2023-01-09T04:42:39.513Z,-5.38
2023-01-09T04:45:07.031Z,-5.36
2023-01-09T04:47:33.896Z,-5.34
2023-01-09T04:50:01.059Z,-5.32
2023-01-09T04:52:27.982Z,-5.32
2023-01-09T04:54:54.838Z,-5.31
2023-01-09T04:57:21.611Z,-5.33
2023-01-09T04:59:48.428Z,-5.37
2023-01-09T05:02:15.433Z,-5.40
2023-01-09T05:04:42.411Z,-5.37
2023-01-09T05:07:09.229Z,-5.36
2023-01-09T05:09:36.184Z,-5.36
2023-01-09T05:12:03.154Z,-5.37
2023-01-09T05:14:30.186Z,-5.36
2023-01-09T05:16:56.974Z,-5.35
2023-01-09T05:19:23.743Z,-5.30
2023-01-09T05:21:50.618Z,-5.28
2023-01-09T05:24:17.547Z,-5.29
2023-01-09T05:26:44.395Z,-5.33
2023-01-09T05:29:11.272Z,-5.34
2023-01-09T05:31:38.081Z,-5.30
2023-01-09T05:34:05.004Z,-5.23
2023-01-09T05:36:31.838Z,-5.17
2023-01-09T05:38:58.616Z,-5.14
2023-01-09T05:41:26.358Z,-5.12
2023-01-09T05:43:53.308Z,-5.06
2023-01-09T05:46:20.367Z,-5.02
2023-01-09T05:48:47.165Z,-5.02
2023-01-09T05:51:14.051Z,-5.02
2023-01-09T05:53:40.927Z,-5.00
2023-01-09T05:56:07.839Z,-4.95
2023-01-09T05:58:34.919Z,-4.93
2023-01-09T06:01:01.797Z,-4.89
2023-01-09T06:03:28.630Z,-4.85
2023-01-09T06:05:55.369Z,-4.81
2023-01-09T06:08:22.248Z,-4.80
2023-01-09T06:10:49.100Z,-4.79
2023-01-09T06:13:16.005Z,-4.68
2023-01-09T06:15:42.868Z,-4.61
2023-01-09T06:18:09.835Z,-4.61
2023-01-09T06:20:36.547Z,-4.63
2023-01-09T06:23:03.351Z,-4.64
2023-01-09T06:25:30.123Z,-4.64
2023-01-09T06:27:56.962Z,-4.63
2023-01-09T06:30:23.807Z,-4.65
2023-01-09T06:32:51.505Z,-4.75
2023-01-09T06:35:20.705Z,-4.83
2023-01-09T06:37:48.332Z,-4.84
2023-01-09T06:40:16.010Z,-4.80
2023-01-09T06:42:44.909Z,-4.77
2023-01-09T06:45:12.531Z,-4.76
2023-01-09T06:47:39.739Z,-4.75
2023-01-09T06:50:08.221Z,-4.74
2023-01-09T06:52:36.190Z,-4.70
2023-01-09T06:55:03.063Z,-4.67
2023-01-09T06:57:29.888Z,-4.67
2023-01-09T06:59:56.708Z,-4.67
2023-01-09T07:02:23.599Z,-4.67
2023-01-09T07:04:50.605Z,-4.64
2023-01-09T07:07:18.465Z,-4.61
2023-01-09T07:09:45.432Z,-4.60
2023-01-09T07:12:13.074Z,-4.59
2023-01-09T07:14:39.869Z,-4.53
2023-01-09T07:17:06.801Z,-4.47
2023-01-09T07:19:33.515Z,-4.41
2023-01-09T07:22:00.256Z,-4.42
2023-01-09T07:24:27.027Z,-4.43
2023-01-09T07:26:53.957Z,-4.43
2023-01-09T07:29:20.806Z,-4.42
2023-01-09T07:31:47.916Z,-4.40
2023-01-09T07:34:14.787Z,-4.39
2023-01-09T07:36:41.525Z,-4.41
2023-01-09T07:39:09.292Z,-4.38
2023-01-09T07:41:36.202Z,-4.29
2023-01-09T07:44:03.058Z,-4.19
2023-01-09T07:46:29.834Z,-4.05
2023-01-09T07:48:56.725Z,-3.95
2023-01-09T07:51:23.517Z,-3.95
2023-01-09T07:53:50.369Z,-3.94
2023-01-09T07:56:17.209Z,-3.92
2023-01-09T07:58:44.057Z,-3.92
2023-01-09T08:01:10.965Z,-3.89
2023-01-09T08:03:38.831Z,-3.87
2023-01-09T08:06:05.957Z,-3.84
2023-01-09T08:08:32.810Z,-3.78
2023-01-09T08:10:59.566Z,-3.61
2023-01-09T08:13:26.492Z,-3.30
2023-01-09T08:15:53.588Z,-3.04
2023-01-09T08:18:20.531Z,-2.77
2023-01-09T08:20:50.595Z,-2.58
2023-01-09T08:23:17.392Z,-2.49
2023-01-09T08:25:44.257Z,-2.39
2023-01-09T08:28:11.227Z,-2.43
2023-01-09T08:30:38.498Z,-2.57
2023-01-09T08:33:05.402Z,-2.69
2023-01-09T08:35:32.369Z,-2.82
2023-01-09T08:37:59.211Z,-2.90
2023-01-09T08:40:26.097Z,-2.85
2023-01-09T08:43:11.836Z,-2.88
2023-01-09T08:45:57.428Z,-3.01
2023-01-09T08:48:24.263Z,-3.20
2023-01-09T08:50:51.309Z,-3.34
2023-01-09T08:53:18.258Z,-3.42
2023-01-09T08:55:45.097Z,-3.44
2023-01-09T08:58:12.050Z,-3.45
2023-01-09T09:00:39.415Z,-3.48
2023-01-09T09:03:06.225Z,-3.50
2023-01-09T09:05:33.288Z,-3.52
2023-01-09T09:08:00.223Z,-3.56
2023-01-09T09:10:27.976Z,-3.57
2023-01-09T09:12:56.170Z,-3.60
2023-01-09T09:15:26.746Z,-3.63
2023-01-09T09:17:55.497Z,-3.67
2023-01-09T09:20:23.450Z,-3.73
2023-01-09T09:22:50.636Z,-3.78
2023-01-09T09:25:17.891Z,-3.83
2023-01-09T09:27:44.757Z,-3.84
2023-01-09T09:30:12.594Z,-3.81
2023-01-09T09:32:39.612Z,-3.77
2023-01-09T09:35:07.000Z,-3.74
2023-01-09T09:37:33.757Z,-3.71
2023-01-09T09:40:09.779Z,-3.71
2023-01-09T09:43:37.484Z,-3.64
2023-01-09T09:46:29.463Z,-3.56
2023-01-09T09:48:58.156Z,-3.52
2023-01-09T09:51:47.582Z,-3.52
2023-01-09T09:54:18.474Z,-3.53
2023-01-09T09:56:50.649Z,-3.50
2023-01-09T09:59:27.039Z,-3.47
2023-01-09T10:01:57.865Z,-3.47
2023-01-09T10:04:26.417Z,-3.49
2023-01-09T10:06:56.844Z,-3.48
2023-01-09T10:09:27.312Z,-3.46
2023-01-09T12:26:27.844Z,-2.35
2023-01-09T12:29:09.912Z,-2.20
2023-01-09T12:31:59.792Z,-2.18
2023-01-09T12:35:04.338Z,-2.19
2023-01-09T12:38:06.297Z,-2.17
2023-01-09T12:40:42.700Z,-2.17
2023-01-09T12:43:19.737Z,-2.14
2023-01-09T12:46:11.445Z,-2.16
2023-01-09T12:49:08.720Z,-2.20
2023-01-09T12:51:54.277Z,-2.17
2023-01-09T12:54:38.977Z,-2.11
2023-01-09T12:57:44.819Z,-2.06
2023-01-09T13:00:14.656Z,-2.00
2023-01-09T13:02:44.094Z,-1.98
2023-01-09T13:05:16.102Z,-1.97
2023-01-09T13:07:49.183Z,-1.97
2023-01-09T13:10:34.855Z,-1.99
2023-01-09T13:13:12.793Z,-2.02
2023-01-09T13:15:45.296Z,-2.02
2023-01-09T16:40:32.228Z,-0.87
2023-01-09T16:43:00.332Z,-0.80
2023-01-09T16:45:28.676Z,-0.82
2023-01-09T16:47:55.706Z,-0.84
2023-01-09T16:50:24.077Z,-0.87
2023-01-09T16:52:51.557Z,-0.89
2023-01-09T16:55:18.375Z,-0.91
2023-01-09T16:57:45.225Z,-0.93
2023-01-09T17:00:18.944Z,-0.94
2023-01-09T17:02:46.165Z,-0.96
2023-01-09T17:05:13.323Z,-0.97
2023-01-09T17:07:40.117Z,-0.99
2023-01-09T17:10:10.380Z,-1.02
2023-01-09T17:12:37.334Z,-1.02
2023-01-09T17:15:04.457Z,-1.02
2023-01-09T17:17:31.425Z,-1.01
2023-01-09T17:19:58.506Z,-1.00
2023-01-09T17:22:25.381Z,-1.01
2023-01-09T17:25:11.046Z,-1.01
2023-01-09T17:27:56.719Z,-0.99
2023-01-09T17:30:23.643Z,-0.98
2023-01-09T17:32:50.585Z,-0.96
2023-01-09T17:35:17.555Z,-0.98
2023-01-09T17:37:44.456Z,-0.99
2023-01-09T17:40:22.372Z,-1.01
2023-01-09T17:42:49.162Z,-1.03
2023-01-09T17:45:16.151Z,-1.04
2023-01-09T17:47:42.921Z,-1.05
2023-01-09T17:50:18.169Z,-1.04
2023-01-09T17:52:45.488Z,-0.95
2023-01-09T17:55:12.334Z,-0.54
2023-01-09T17:57:39.275Z,0.06
2023-01-09T18:00:07.142Z,0.29
2023-01-09T18:02:34.101Z,0.19
2023-01-09T18:05:00.943Z,0.04
2023-01-09T18:07:27.726Z,-0.14
2023-01-09T18:09:54.540Z,-0.28
2023-01-09T18:12:21.571Z,-0.39
2023-01-09T18:14:48.319Z,-0.50
2023-01-09T18:17:15.104Z,-0.62
2023-01-09T18:19:42.392Z,-0.70
2023-01-09T18:22:09.324Z,-0.75
2023-01-09T18:24:36.275Z,-0.83
2023-01-09T18:27:08.449Z,-0.90
2023-01-09T18:29:35.250Z,-0.99
2023-01-09T18:32:02.307Z,-1.06
2023-01-09T18:34:29.131Z,-1.10
2023-01-09T18:36:56.078Z,-1.11
2023-01-09T18:39:23.148Z,-1.11
2023-01-09T18:41:50.010Z,-1.11
2023-01-09T18:44:20.144Z,-1.12
2023-01-09T18:46:47.152Z,-1.13
2023-01-09T18:49:14.026Z,-1.13
2023-01-09T18:51:40.846Z,-1.14
2023-01-09T18:54:08.403Z,-1.13
2023-01-09T18:56:35.769Z,-1.10
2023-01-09T18:59:02.557Z,-1.08
2023-01-09T19:01:29.926Z,-1.06
2023-01-09T19:03:57.449Z,-1.04
2023-01-09T19:06:24.375Z,-1.03
2023-01-09T22:24:34.517Z,-1.20
2023-01-09T22:27:01.458Z,-1.26
2023-01-09T22:29:28.423Z,-1.30
2023-01-09T22:31:55.256Z,-1.33
2023-01-09T22:34:21.980Z,-1.35
2023-01-09T22:36:48.899Z,-1.37
2023-01-09T22:39:17.288Z,-1.42
2023-01-09T22:41:44.210Z,-1.48
2023-01-09T22:44:11.514Z,-1.52
2023-01-09T22:46:38.878Z,-1.52
2023-01-09T22:49:05.809Z,-1.53
2023-01-09T22:51:33.877Z,-1.55
2023-01-09T22:54:01.047Z,-1.60
2023-01-09T22:56:28.092Z,-1.63
2023-01-09T22:58:58.395Z,-1.66
2023-01-09T23:01:25.262Z,-1.70
2023-01-09T23:03:52.125Z,-1.71
2023-01-09T23:06:20.454Z,-1.72
2023-01-09T23:08:49.459Z,-1.74
2023-01-09T23:11:17.450Z,-1.76
2023-01-09T23:13:44.285Z,-1.74
2023-01-09T23:16:11.053Z,-1.73
2023-01-09T23:18:37.898Z,-1.73
2023-01-09T23:21:05.079Z,-1.74
2023-01-09T23:23:32.214Z,-1.73
2023-01-09T23:26:00.833Z,-1.70
2023-01-09T23:28:27.895Z,-1.68
2023-01-09T23:30:54.861Z,-1.63
2023-01-09T23:33:21.648Z,-1.60
2023-01-09T23:35:48.558Z,-1.59
2023-01-09T23:38:15.647Z,-1.59
2023-01-09T23:40:42.627Z,-1.64
2023-01-09T23:43:13.359Z,-1.73
2023-01-09T23:45:43.828Z,-1.84
2023-01-09T23:48:12.685Z,-1.91
2023-01-09T23:50:39.621Z,-1.94
2023-01-09T23:53:06.428Z,-1.98
2023-01-09T23:55:35.562Z,-2.00
2023-01-09T23:58:02.409Z,-1.99
